Pine Bluff, California
Current Conditions -  °F | °C
As of 10:46 PM on Saturday 20 Dec 2014 (Local Time) from KMHR Reporting Station
Overcast Overcast  
Wind Chill: 55°   Ceiling: 3400
Heat Index: 55°   Visibility: 10mi
Dew Point: 55°   Wind: 6mph
Humidity: 100%   Direction: 110°ESE
Pressure: 30.26"   Gusts: NA
Location:  38.6648°N, 121.141°W
Report Text: KMHR 210646Z 11005KT 10SM OVC034 13/13 A3026
Loading
Personal Weather Stations






























Interactive Weather Map New forecast layout! Learn more

10-Day Weather Forecast

Advertisements
Track Severe Weather on mobile